sensor_id;sensor_type;location;lat;lon;timestamp;P1;durP1;ratioP1;P2;durP2;ratioP2
14276;SDS011;7222;57.346;12.150;2023-02-27T00:02:04;2.43;;;2.20;;
14276;SDS011;7222;57.346;12.150;2023-02-27T00:04:31;3.47;;;2.60;;
14276;SDS011;7222;57.346;12.150;2023-02-27T00:06:58;2.83;;;2.47;;
14276;SDS011;7222;57.346;12.150;2023-02-27T00:09:25;3.40;;;2.03;;
14276;SDS011;7222;57.346;12.150;2023-02-27T00:11:54;4.67;;;2.30;;
14276;SDS011;7222;57.346;12.150;2023-02-27T00:14:21;3.43;;;1.90;;
14276;SDS011;7222;57.346;12.150;2023-02-27T00:16:48;4.27;;;2.13;;
14276;SDS011;7222;57.346;12.150;2023-02-27T00:19:15;3.37;;;2.37;;
14276;SDS011;7222;57.346;12.150;2023-02-27T00:21:42;7.33;;;2.70;;
14276;SDS011;7222;57.346;12.150;2023-02-27T00:24:09;3.17;;;2.00;;
14276;SDS011;7222;57.346;12.150;2023-02-27T00:26:36;2.73;;;2.00;;
14276;SDS011;7222;57.346;12.150;2023-02-27T00:29:06;4.00;;;2.47;;
14276;SDS011;7222;57.346;12.150;2023-02-27T00:31:33;2.30;;;2.10;;
14276;SDS011;7222;57.346;12.150;2023-02-27T00:34:00;3.37;;;2.40;;
14276;SDS011;7222;57.346;12.150;2023-02-27T00:36:28;4.40;;;2.50;;
14276;SDS011;7222;57.346;12.150;2023-02-27T00:38:55;3.10;;;2.23;;
14276;SDS011;7222;57.346;12.150;2023-02-27T00:41:22;3.17;;;2.10;;
14276;SDS011;7222;57.346;12.150;2023-02-27T00:43:49;5.60;;;2.63;;
14276;SDS011;7222;57.346;12.150;2023-02-27T00:46:17;6.10;;;2.43;;
14276;SDS011;7222;57.346;12.150;2023-02-27T00:48:44;2.90;;;2.10;;
14276;SDS011;7222;57.346;12.150;2023-02-27T00:51:11;3.23;;;1.80;;
14276;SDS011;7222;57.346;12.150;2023-02-27T00:53:38;6.60;;;2.37;;
14276;SDS011;7222;57.346;12.150;2023-02-27T00:56:05;6.43;;;2.60;;
14276;SDS011;7222;57.346;12.150;2023-02-27T00:58:32;3.63;;;2.50;;
14276;SDS011;7222;57.346;12.150;2023-02-27T01:00:59;3.67;;;2.33;;
14276;SDS011;7222;57.346;12.150;2023-02-27T01:03:28;2.97;;;2.10;;
14276;SDS011;7222;57.346;12.150;2023-02-27T01:05:55;3.00;;;2.33;;
14276;SDS011;7222;57.346;12.150;2023-02-27T01:08:22;4.73;;;2.47;;
14276;SDS011;7222;57.346;12.150;2023-02-27T01:10:49;5.80;;;2.40;;
14276;SDS011;7222;57.346;12.150;2023-02-27T01:13:16;5.53;;;2.80;;
14276;SDS011;7222;57.346;12.150;2023-02-27T01:15:43;3.80;;;2.60;;
14276;SDS011;7222;57.346;12.150;2023-02-27T01:18:10;5.27;;;2.47;;
14276;SDS011;7222;57.346;12.150;2023-02-27T01:20:38;3.37;;;2.40;;
14276;SDS011;7222;57.346;12.150;2023-02-27T01:23:05;4.53;;;2.47;;
14276;SDS011;7222;57.346;12.150;2023-02-27T01:25:32;4.00;;;2.50;;
14276;SDS011;7222;57.346;12.150;2023-02-27T01:27:59;5.50;;;3.13;;
14276;SDS011;7222;57.346;12.150;2023-02-27T01:30:27;4.60;;;2.47;;
14276;SDS011;7222;57.346;12.150;2023-02-27T01:32:54;4.60;;;2.80;;
14276;SDS011;7222;57.346;12.150;2023-02-27T01:35:21;5.87;;;2.70;;
14276;SDS011;7222;57.346;12.150;2023-02-27T01:37:50;6.27;;;2.90;;
14276;SDS011;7222;57.346;12.150;2023-02-27T01:40:17;4.53;;;2.87;;
14276;SDS011;7222;57.346;12.150;2023-02-27T01:42:45;4.37;;;2.33;;
14276;SDS011;7222;57.346;12.150;2023-02-27T01:45:28;4.43;;;2.47;;
14276;SDS011;7222;57.346;12.150;2023-02-27T01:47:59;3.27;;;2.90;;
14276;SDS011;7222;57.346;12.150;2023-02-27T01:50:36;4.00;;;2.37;;
14276;SDS011;7222;57.346;12.150;2023-02-27T01:53:13;3.60;;;2.27;;
14276;SDS011;7222;57.346;12.150;2023-02-27T01:55:40;4.27;;;3.47;;
14276;SDS011;7222;57.346;12.150;2023-02-27T01:58:09;3.13;;;2.60;;
14276;SDS011;7222;57.346;12.150;2023-02-27T02:00:37;3.07;;;2.40;;
14276;SDS011;7222;57.346;12.150;2023-02-27T02:03:08;3.10;;;2.37;;
14276;SDS011;7222;57.346;12.150;2023-02-27T02:05:41;4.93;;;2.30;;
14276;SDS011;7222;57.346;12.150;2023-02-27T02:08:11;5.47;;;2.40;;
14276;SDS011;7222;57.346;12.150;2023-02-27T02:10:41;2.70;;;2.30;;
14276;SDS011;7222;57.346;12.150;2023-02-27T02:13:09;5.30;;;2.20;;
14276;SDS011;7222;57.346;12.150;2023-02-27T02:15:36;4.37;;;2.30;;
14276;SDS011;7222;57.346;12.150;2023-02-27T02:18:13;3.77;;;2.70;;
14276;SDS011;7222;57.346;12.150;2023-02-27T02:27:12;4.87;;;2.60;;
14276;SDS011;7222;57.346;12.150;2023-02-27T02:29:58;6.30;;;2.30;;
14276;SDS011;7222;57.346;12.150;2023-02-27T02:42:05;3.77;;;2.47;;
14276;SDS011;7222;57.346;12.150;2023-02-27T02:44:41;4.77;;;2.43;;
14276;SDS011;7222;57.346;12.150;2023-02-27T02:47:21;4.47;;;2.20;;
14276;SDS011;7222;57.346;12.150;2023-02-27T02:49:58;6.00;;;2.40;;
14276;SDS011;7222;57.346;12.150;2023-02-27T02:52:33;3.23;;;2.03;;
14276;SDS011;7222;57.346;12.150;2023-02-27T02:55:11;5.00;;;2.30;;
14276;SDS011;7222;57.346;12.150;2023-02-27T02:57:42;3.67;;;2.40;;
14276;SDS011;7222;57.346;12.150;2023-02-27T03:00:17;3.50;;;2.23;;
14276;SDS011;7222;57.346;12.150;2023-02-27T03:02:49;4.17;;;2.50;;
14276;SDS011;7222;57.346;12.150;2023-02-27T03:05:21;3.70;;;2.27;;
14276;SDS011;7222;57.346;12.150;2023-02-27T03:07:52;2.10;;;1.90;;
14276;SDS011;7222;57.346;12.150;2023-02-27T03:10:28;4.87;;;2.57;;
14276;SDS011;7222;57.346;12.150;2023-02-27T03:12:59;4.70;;;2.33;;
14276;SDS011;7222;57.346;12.150;2023-02-27T03:15:29;6.30;;;2.70;;
14276;SDS011;7222;57.346;12.150;2023-02-27T03:18:01;4.93;;;2.57;;
14276;SDS011;7222;57.346;12.150;2023-02-27T03:20:34;3.73;;;2.53;;
14276;SDS011;7222;57.346;12.150;2023-02-27T03:23:06;3.23;;;2.70;;
14276;SDS011;7222;57.346;12.150;2023-02-27T03:25:39;4.60;;;2.53;;
14276;SDS011;7222;57.346;12.150;2023-02-27T03:28:11;4.53;;;2.50;;
14276;SDS011;7222;57.346;12.150;2023-02-27T03:30:44;5.03;;;2.27;;
14276;SDS011;7222;57.346;12.150;2023-02-27T03:33:16;3.30;;;2.77;;
14276;SDS011;7222;57.346;12.150;2023-02-27T03:35:48;3.57;;;2.27;;
14276;SDS011;7222;57.346;12.150;2023-02-27T03:38:23;3.67;;;2.50;;
14276;SDS011;7222;57.346;12.150;2023-02-27T03:41:00;5.37;;;2.70;;
14276;SDS011;7222;57.346;12.150;2023-02-27T03:43:36;4.33;;;2.60;;
14276;SDS011;7222;57.346;12.150;2023-02-27T03:46:11;5.63;;;2.70;;
14276;SDS011;7222;57.346;12.150;2023-02-27T03:48:41;4.77;;;2.50;;
14276;SDS011;7222;57.346;12.150;2023-02-27T03:51:10;4.63;;;2.80;;
14276;SDS011;7222;57.346;12.150;2023-02-27T03:53:40;3.50;;;2.30;;
14276;SDS011;7222;57.346;12.150;2023-02-27T03:56:12;4.77;;;2.60;;
14276;SDS011;7222;57.346;12.150;2023-02-27T03:58:41;3.43;;;2.77;;
14276;SDS011;7222;57.346;12.150;2023-02-27T04:01:08;4.37;;;2.40;;
14276;SDS011;7222;57.346;12.150;2023-02-27T04:03:36;5.23;;;2.80;;
14276;SDS011;7222;57.346;12.150;2023-02-27T04:06:08;2.93;;;2.20;;
14276;SDS011;7222;57.346;12.150;2023-02-27T04:08:50;4.97;;;2.67;;
14276;SDS011;7222;57.346;12.150;2023-02-27T04:11:32;4.93;;;2.30;;
14276;SDS011;7222;57.346;12.150;2023-02-27T04:14:14;6.00;;;2.73;;
14276;SDS011;7222;57.346;12.150;2023-02-27T04:16:55;6.30;;;2.50;;
14276;SDS011;7222;57.346;12.150;2023-02-27T04:19:37;3.83;;;2.60;;
14276;SDS011;7222;57.346;12.150;2023-02-27T04:22:21;4.67;;;2.67;;
14276;SDS011;7222;57.346;12.150;2023-02-27T04:24:57;4.83;;;2.60;;
14276;SDS011;7222;57.346;12.150;2023-02-27T04:27:34;4.70;;;2.37;;
14276;SDS011;7222;57.346;12.150;2023-02-27T04:30:08;5.63;;;2.57;;
14276;SDS011;7222;57.346;12.150;2023-02-27T04:32:43;4.37;;;2.30;;
14276;SDS011;7222;57.346;12.150;2023-02-27T04:35:18;4.50;;;2.63;;
14276;SDS011;7222;57.346;12.150;2023-02-27T04:37:50;5.57;;;2.60;;
14276;SDS011;7222;57.346;12.150;2023-02-27T04:40:23;4.50;;;2.70;;
14276;SDS011;7222;57.346;12.150;2023-02-27T04:42:56;4.33;;;2.77;;
14276;SDS011;7222;57.346;12.150;2023-02-27T04:45:25;3.60;;;2.90;;
14276;SDS011;7222;57.346;12.150;2023-02-27T04:47:56;5.37;;;2.50;;
14276;SDS011;7222;57.346;12.150;2023-02-27T04:50:28;3.07;;;2.20;;
14276;SDS011;7222;57.346;12.150;2023-02-27T04:53:02;3.97;;;3.17;;
14276;SDS011;7222;57.346;12.150;2023-02-27T04:55:34;4.37;;;2.33;;
14276;SDS011;7222;57.346;12.150;2023-02-27T04:58:08;3.27;;;2.40;;
14276;SDS011;7222;57.346;12.150;2023-02-27T05:00:38;5.37;;;2.80;;
14276;SDS011;7222;57.346;12.150;2023-02-27T05:03:09;4.20;;;2.90;;
14276;SDS011;7222;57.346;12.150;2023-02-27T05:05:40;3.97;;;2.83;;
14276;SDS011;7222;57.346;12.150;2023-02-27T05:08:09;4.60;;;2.60;;
14276;SDS011;7222;57.346;12.150;2023-02-27T05:10:44;6.40;;;3.27;;
14276;SDS011;7222;57.346;12.150;2023-02-27T05:13:17;6.03;;;3.07;;
14276;SDS011;7222;57.346;12.150;2023-02-27T05:15:48;4.00;;;2.40;;
14276;SDS011;7222;57.346;12.150;2023-02-27T05:18:19;3.37;;;2.50;;
14276;SDS011;7222;57.346;12.150;2023-02-27T05:20:50;7.20;;;2.60;;
14276;SDS011;7222;57.346;12.150;2023-02-27T05:23:24;6.47;;;2.60;;
14276;SDS011;7222;57.346;12.150;2023-02-27T05:26:01;3.97;;;2.40;;
14276;SDS011;7222;57.346;12.150;2023-02-27T05:28:40;4.40;;;2.80;;
14276;SDS011;7222;57.346;12.150;2023-02-27T05:31:19;5.20;;;2.17;;
14276;SDS011;7222;57.346;12.150;2023-02-27T05:33:53;3.10;;;2.37;;
14276;SDS011;7222;57.346;12.150;2023-02-27T05:36:25;4.30;;;2.63;;
14276;SDS011;7222;57.346;12.150;2023-02-27T05:38:58;4.50;;;2.77;;
14276;SDS011;7222;57.346;12.150;2023-02-27T05:41:28;3.87;;;2.73;;
14276;SDS011;7222;57.346;12.150;2023-02-27T05:44:00;3.40;;;2.60;;
14276;SDS011;7222;57.346;12.150;2023-02-27T05:46:30;3.63;;;2.70;;
14276;SDS011;7222;57.346;12.150;2023-02-27T05:49:03;3.67;;;2.70;;
14276;SDS011;7222;57.346;12.150;2023-02-27T05:51:33;4.43;;;2.40;;
14276;SDS011;7222;57.346;12.150;2023-02-27T05:54:04;4.67;;;2.13;;
14276;SDS011;7222;57.346;12.150;2023-02-27T05:56:36;5.73;;;2.60;;
14276;SDS011;7222;57.346;12.150;2023-02-27T05:59:07;4.77;;;2.60;;
14276;SDS011;7222;57.346;12.150;2023-02-27T06:01:41;3.97;;;2.10;;
14276;SDS011;7222;57.346;12.150;2023-02-27T06:04:08;5.07;;;2.77;;
14276;SDS011;7222;57.346;12.150;2023-02-27T06:06:35;2.70;;;2.40;;
14276;SDS011;7222;57.346;12.150;2023-02-27T06:09:04;7.40;;;2.67;;
14276;SDS011;7222;57.346;12.150;2023-02-27T06:11:32;6.37;;;2.70;;
14276;SDS011;7222;57.346;12.150;2023-02-27T06:13:58;9.13;;;2.83;;
14276;SDS011;7222;57.346;12.150;2023-02-27T06:16:27;4.17;;;3.13;;
14276;SDS011;7222;57.346;12.150;2023-02-27T06:18:54;3.83;;;2.67;;
14276;SDS011;7222;57.346;12.150;2023-02-27T06:21:21;4.40;;;2.90;;
14276;SDS011;7222;57.346;12.150;2023-02-27T06:23:48;8.77;;;3.00;;
14276;SDS011;7222;57.346;12.150;2023-02-27T06:26:14;6.57;;;3.03;;
14276;SDS011;7222;57.346;12.150;2023-02-27T06:28:41;5.20;;;2.97;;
14276;SDS011;7222;57.346;12.150;2023-02-27T06:31:08;5.47;;;3.40;;
14276;SDS011;7222;57.346;12.150;2023-02-27T06:33:37;5.63;;;3.10;;
14276;SDS011;7222;57.346;12.150;2023-02-27T06:36:04;8.43;;;3.23;;
14276;SDS011;7222;57.346;12.150;2023-02-27T06:38:31;4.97;;;2.90;;
14276;SDS011;7222;57.346;12.150;2023-02-27T06:40:58;3.67;;;2.87;;
14276;SDS011;7222;57.346;12.150;2023-02-27T06:43:26;5.73;;;3.40;;
14276;SDS011;7222;57.346;12.150;2023-02-27T06:45:54;6.37;;;3.77;;
14276;SDS011;7222;57.346;12.150;2023-02-27T06:48:21;10.90;;;3.50;;
14276;SDS011;7222;57.346;12.150;2023-02-27T06:50:51;5.30;;;3.30;;
14276;SDS011;7222;57.346;12.150;2023-02-27T06:53:18;9.00;;;4.57;;
14276;SDS011;7222;57.346;12.150;2023-02-27T06:55:46;12.23;;;5.07;;
14276;SDS011;7222;57.346;12.150;2023-02-27T06:58:13;7.97;;;5.23;;
14276;SDS011;7222;57.346;12.150;2023-02-27T07:00:40;8.67;;;4.87;;
14276;SDS011;7222;57.346;12.150;2023-02-27T07:03:07;3.50;;;3.00;;
14276;SDS011;7222;57.346;12.150;2023-02-27T07:05:34;4.90;;;3.07;;
14276;SDS011;7222;57.346;12.150;2023-02-27T07:08:03;5.10;;;3.67;;
14276;SDS011;7222;57.346;12.150;2023-02-27T07:10:30;7.97;;;3.20;;
14276;SDS011;7222;57.346;12.150;2023-02-27T07:12:57;3.90;;;2.70;;
14276;SDS011;7222;57.346;12.150;2023-02-27T07:15:24;5.47;;;3.23;;
14276;SDS011;7222;57.346;12.150;2023-02-27T07:17:50;6.57;;;3.30;;
14276;SDS011;7222;57.346;12.150;2023-02-27T07:20:18;4.93;;;2.80;;
14276;SDS011;7222;57.346;12.150;2023-02-27T07:22:46;5.53;;;3.27;;
14276;SDS011;7222;57.346;12.150;2023-02-27T07:25:14;6.63;;;3.63;;
14276;SDS011;7222;57.346;12.150;2023-02-27T07:27:42;7.23;;;4.37;;
14276;SDS011;7222;57.346;12.150;2023-02-27T07:30:10;5.07;;;3.97;;
14276;SDS011;7222;57.346;12.150;2023-02-27T07:32:38;6.20;;;3.80;;
14276;SDS011;7222;57.346;12.150;2023-02-27T07:35:05;6.10;;;3.23;;
14276;SDS011;7222;57.346;12.150;2023-02-27T07:37:33;7.33;;;3.60;;
14276;SDS011;7222;57.346;12.150;2023-02-27T07:40:00;5.77;;;3.80;;
14276;SDS011;7222;57.346;12.150;2023-02-27T07:42:29;6.50;;;3.70;;
14276;SDS011;7222;57.346;12.150;2023-02-27T07:44:56;5.10;;;3.17;;
14276;SDS011;7222;57.346;12.150;2023-02-27T07:47:23;8.00;;;3.53;;
14276;SDS011;7222;57.346;12.150;2023-02-27T07:49:50;5.97;;;3.90;;
14276;SDS011;7222;57.346;12.150;2023-02-27T07:52:17;6.03;;;4.40;;
14276;SDS011;7222;57.346;12.150;2023-02-27T07:54:44;7.50;;;4.20;;
14276;SDS011;7222;57.346;12.150;2023-02-27T07:57:11;5.77;;;3.80;;
14276;SDS011;7222;57.346;12.150;2023-02-27T07:59:40;6.30;;;3.80;;
14276;SDS011;7222;57.346;12.150;2023-02-27T08:02:08;4.93;;;3.53;;
14276;SDS011;7222;57.346;12.150;2023-02-27T08:04:35;6.80;;;3.90;;
14276;SDS011;7222;57.346;12.150;2023-02-27T08:07:02;5.50;;;3.77;;
14276;SDS011;7222;57.346;12.150;2023-02-27T08:09:29;5.67;;;3.87;;
14276;SDS011;7222;57.346;12.150;2023-02-27T08:11:56;5.70;;;3.83;;
14276;SDS011;7222;57.346;12.150;2023-02-27T08:14:23;10.53;;;6.07;;
14276;SDS011;7222;57.346;12.150;2023-02-27T08:16:51;12.27;;;6.80;;
14276;SDS011;7222;57.346;12.150;2023-02-27T08:19:18;11.57;;;6.90;;
14276;SDS011;7222;57.346;12.150;2023-02-27T08:21:45;11.53;;;7.63;;
14276;SDS011;7222;57.346;12.150;2023-02-27T08:24:12;8.57;;;5.80;;
14276;SDS011;7222;57.346;12.150;2023-02-27T08:26:39;11.97;;;6.17;;
14276;SDS011;7222;57.346;12.150;2023-02-27T08:29:06;8.60;;;6.23;;
14276;SDS011;7222;57.346;12.150;2023-02-27T08:31:33;8.60;;;5.50;;
14276;SDS011;7222;57.346;12.150;2023-02-27T08:34:05;7.40;;;6.10;;
14276;SDS011;7222;57.346;12.150;2023-02-27T08:36:32;11.63;;;6.40;;
14276;SDS011;7222;57.346;12.150;2023-02-27T08:38:59;13.10;;;7.57;;
14276;SDS011;7222;57.346;12.150;2023-02-27T08:41:25;9.27;;;6.63;;
14276;SDS011;7222;57.346;12.150;2023-02-27T08:43:52;12.90;;;6.03;;
14276;SDS011;7222;57.346;12.150;2023-02-27T08:46:19;8.27;;;5.70;;
14276;SDS011;7222;57.346;12.150;2023-02-27T08:48:46;9.47;;;5.23;;
14276;SDS011;7222;57.346;12.150;2023-02-27T08:51:14;5.87;;;4.30;;
14276;SDS011;7222;57.346;12.150;2023-02-27T08:53:41;5.23;;;4.20;;
14276;SDS011;7222;57.346;12.150;2023-02-27T08:56:08;9.87;;;4.17;;
14276;SDS011;7222;57.346;12.150;2023-02-27T08:58:35;6.47;;;3.93;;
14276;SDS011;7222;57.346;12.150;2023-02-27T09:01:02;5.90;;;4.40;;
14276;SDS011;7222;57.346;12.150;2023-02-27T09:03:29;5.80;;;3.90;;
14276;SDS011;7222;57.346;12.150;2023-02-27T09:05:56;5.00;;;3.40;;
14276;SDS011;7222;57.346;12.150;2023-02-27T09:08:25;4.77;;;2.70;;
14276;SDS011;7222;57.346;12.150;2023-02-27T09:10:54;3.87;;;2.53;;
14276;SDS011;7222;57.346;12.150;2023-02-27T09:13:23;3.50;;;2.60;;
14276;SDS011;7222;57.346;12.150;2023-02-27T09:15:50;4.73;;;2.77;;
14276;SDS011;7222;57.346;12.150;2023-02-27T09:18:17;3.63;;;2.53;;
14276;SDS011;7222;57.346;12.150;2023-02-27T09:20:44;3.97;;;2.53;;
14276;SDS011;7222;57.346;12.150;2023-02-27T09:23:11;3.33;;;2.40;;
14276;SDS011;7222;57.346;12.150;2023-02-27T09:25:39;7.10;;;2.77;;
14276;SDS011;7222;57.346;12.150;2023-02-27T09:28:06;3.37;;;1.90;;
14276;SDS011;7222;57.346;12.150;2023-02-27T09:30:33;4.53;;;2.63;;
14276;SDS011;7222;57.346;12.150;2023-02-27T09:33:00;3.73;;;2.50;;
14276;SDS011;7222;57.346;12.150;2023-02-27T09:35:27;4.23;;;2.33;;
14276;SDS011;7222;57.346;12.150;2023-02-27T09:37:55;3.17;;;2.30;;
14276;SDS011;7222;57.346;12.150;2023-02-27T09:40:24;2.53;;;2.13;;
14276;SDS011;7222;57.346;12.150;2023-02-27T09:42:55;2.90;;;2.20;;
14276;SDS011;7222;57.346;12.150;2023-02-27T09:45:26;3.90;;;2.10;;
14276;SDS011;7222;57.346;12.150;2023-02-27T09:47:57;3.67;;;2.30;;
14276;SDS011;7222;57.346;12.150;2023-02-27T09:50:35;5.13;;;2.50;;
14276;SDS011;7222;57.346;12.150;2023-02-27T09:53:05;3.83;;;2.00;;
14276;SDS011;7222;57.346;12.150;2023-02-27T09:55:42;2.20;;;1.77;;
14276;SDS011;7222;57.346;12.150;2023-02-27T09:58:18;2.33;;;1.40;;
14276;SDS011;7222;57.346;12.150;2023-02-27T10:00:56;3.53;;;2.17;;
14276;SDS011;7222;57.346;12.150;2023-02-27T10:03:32;5.10;;;2.13;;
14276;SDS011;7222;57.346;12.150;2023-02-27T10:06:14;4.13;;;1.90;;
14276;SDS011;7222;57.346;12.150;2023-02-27T10:08:48;3.20;;;1.67;;
14276;SDS011;7222;57.346;12.150;2023-02-27T10:11:22;2.40;;;1.87;;
14276;SDS011;7222;57.346;12.150;2023-02-27T10:14:00;3.23;;;2.13;;
14276;SDS011;7222;57.346;12.150;2023-02-27T10:16:34;3.00;;;1.70;;
14276;SDS011;7222;57.346;12.150;2023-02-27T10:19:03;4.30;;;1.73;;
14276;SDS011;7222;57.346;12.150;2023-02-27T10:21:37;2.40;;;1.83;;
14276;SDS011;7222;57.346;12.150;2023-02-27T10:24:11;4.90;;;2.47;;
14276;SDS011;7222;57.346;12.150;2023-02-27T10:26:48;2.03;;;1.83;;
14276;SDS011;7222;57.346;12.150;2023-02-27T10:29:19;5.53;;;1.70;;
14276;SDS011;7222;57.346;12.150;2023-02-27T10:31:53;2.07;;;1.60;;
14276;SDS011;7222;57.346;12.150;2023-02-27T10:34:24;2.17;;;1.50;;
14276;SDS011;7222;57.346;12.150;2023-02-27T10:36:54;3.97;;;1.80;;
14276;SDS011;7222;57.346;12.150;2023-02-27T10:39:24;1.77;;;1.53;;
14276;SDS011;7222;57.346;12.150;2023-02-27T10:41:52;2.47;;;1.37;;
14276;SDS011;7222;57.346;12.150;2023-02-27T10:44:26;1.27;;;1.17;;
14276;SDS011;7222;57.346;12.150;2023-02-27T10:46:52;3.53;;;1.20;;
14276;SDS011;7222;57.346;12.150;2023-02-27T10:49:20;2.00;;;1.27;;
14276;SDS011;7222;57.346;12.150;2023-02-27T10:52:02;1.23;;;1.13;;
14276;SDS011;7222;57.346;12.150;2023-02-27T10:54:32;1.60;;;1.50;;
14276;SDS011;7222;57.346;12.150;2023-02-27T10:57:00;2.63;;;1.40;;
14276;SDS011;7222;57.346;12.150;2023-02-27T10:59:32;1.30;;;1.20;;
14276;SDS011;7222;57.346;12.150;2023-02-27T11:02:03;1.77;;;1.40;;
14276;SDS011;7222;57.346;12.150;2023-02-27T11:04:45;1.40;;;1.30;;
14276;SDS011;7222;57.346;12.150;2023-02-27T11:07:24;1.23;;;1.13;;
14276;SDS011;7222;57.346;12.150;2023-02-27T11:09:57;2.63;;;1.40;;
14276;SDS011;7222;57.346;12.150;2023-02-27T11:12:26;2.00;;;1.90;;
14276;SDS011;7222;57.346;12.150;2023-02-27T11:14:56;3.43;;;1.70;;
14276;SDS011;7222;57.346;12.150;2023-02-27T11:17:25;1.50;;;1.40;;
14276;SDS011;7222;57.346;12.150;2023-02-27T11:19:54;2.80;;;1.43;;
14276;SDS011;7222;57.346;12.150;2023-02-27T11:22:23;2.20;;;1.80;;
14276;SDS011;7222;57.346;12.150;2023-02-27T11:25:15;1.70;;;1.60;;
14276;SDS011;7222;57.346;12.150;2023-02-27T11:27:44;3.03;;;2.70;;
14276;SDS011;7222;57.346;12.150;2023-02-27T11:30:20;3.67;;;2.13;;
14276;SDS011;7222;57.346;12.150;2023-02-27T11:32:51;3.50;;;1.90;;
14276;SDS011;7222;57.346;12.150;2023-02-27T11:35:21;2.77;;;1.63;;
14276;SDS011;7222;57.346;12.150;2023-02-27T11:37:51;2.47;;;1.63;;
14276;SDS011;7222;57.346;12.150;2023-02-27T11:40:20;1.67;;;1.57;;
14276;SDS011;7222;57.346;12.150;2023-02-27T11:42:50;2.70;;;1.70;;
14276;SDS011;7222;57.346;12.150;2023-02-27T11:45:32;2.17;;;1.40;;
14276;SDS011;7222;57.346;12.150;2023-02-27T11:48:07;1.93;;;1.37;;
14276;SDS011;7222;57.346;12.150;2023-02-27T11:50:39;1.97;;;1.13;;
14276;SDS011;7222;57.346;12.150;2023-02-27T11:53:31;1.60;;;1.50;;
14276;SDS011;7222;57.346;12.150;2023-02-27T11:56:09;3.00;;;1.43;;
14276;SDS011;7222;57.346;12.150;2023-02-27T11:58:39;1.70;;;1.13;;
14276;SDS011;7222;57.346;12.150;2023-02-27T12:01:17;1.40;;;1.30;;
14276;SDS011;7222;57.346;12.150;2023-02-27T12:03:50;1.53;;;1.13;;
14276;SDS011;7222;57.346;12.150;2023-02-27T12:06:22;1.30;;;1.20;;
14276;SDS011;7222;57.346;12.150;2023-02-27T12:08:55;1.43;;;1.30;;
14276;SDS011;7222;57.346;12.150;2023-02-27T12:11:30;1.73;;;1.10;;
14276;SDS011;7222;57.346;12.150;2023-02-27T12:14:02;1.27;;;1.17;;
14276;SDS011;7222;57.346;12.150;2023-02-27T12:16:38;1.43;;;1.27;;
14276;SDS011;7222;57.346;12.150;2023-02-27T12:19:10;2.43;;;1.40;;
14276;SDS011;7222;57.346;12.150;2023-02-27T12:21:41;1.40;;;1.17;;
14276;SDS011;7222;57.346;12.150;2023-02-27T12:24:13;1.20;;;1.10;;
14276;SDS011;7222;57.346;12.150;2023-02-27T12:26:45;1.20;;;1.10;;
14276;SDS011;7222;57.346;12.150;2023-02-27T12:29:17;1.30;;;1.20;;
14276;SDS011;7222;57.346;12.150;2023-02-27T12:31:50;1.63;;;0.90;;
14276;SDS011;7222;57.346;12.150;2023-02-27T12:34:23;2.00;;;1.20;;
14276;SDS011;7222;57.346;12.150;2023-02-27T12:36:53;1.70;;;1.03;;
14276;SDS011;7222;57.346;12.150;2023-02-27T12:39:25;1.00;;;0.90;;
14276;SDS011;7222;57.346;12.150;2023-02-27T12:45:01;1.20;;;0.97;;
14276;SDS011;7222;57.346;12.150;2023-02-27T12:47:43;2.83;;;1.00;;
14276;SDS011;7222;57.346;12.150;2023-02-27T12:50:15;1.50;;;1.07;;
14276;SDS011;7222;57.346;12.150;2023-02-27T12:52:45;1.10;;;1.00;;
14276;SDS011;7222;57.346;12.150;2023-02-27T12:55:25;1.37;;;1.07;;
14276;SDS011;7222;57.346;12.150;2023-02-27T13:00:53;1.13;;;1.00;;
14276;SDS011;7222;57.346;12.150;2023-02-27T13:03:27;1.20;;;0.90;;
14276;SDS011;7222;57.346;12.150;2023-02-27T13:05:59;0.90;;;0.90;;
14276;SDS011;7222;57.346;12.150;2023-02-27T13:08:42;0.87;;;0.87;;
14276;SDS011;7222;57.346;12.150;2023-02-27T13:11:30;1.73;;;1.00;;
14276;SDS011;7222;57.346;12.150;2023-02-27T13:14:06;1.63;;;1.10;;
14276;SDS011;7222;57.346;12.150;2023-02-27T13:16:42;0.60;;;0.60;;
14276;SDS011;7222;57.346;12.150;2023-02-27T13:19:13;0.90;;;0.90;;
14276;SDS011;7222;57.346;12.150;2023-02-27T13:21:44;1.50;;;0.97;;
14276;SDS011;7222;57.346;12.150;2023-02-27T13:24:20;3.20;;;1.17;;
14276;SDS011;7222;57.346;12.150;2023-02-27T13:26:52;1.30;;;1.20;;
14276;SDS011;7222;57.346;12.150;2023-02-27T13:29:24;1.43;;;1.10;;
14276;SDS011;7222;57.346;12.150;2023-02-27T13:31:56;1.00;;;1.00;;
14276;SDS011;7222;57.346;12.150;2023-02-27T13:34:33;1.63;;;1.40;;
14276;SDS011;7222;57.346;12.150;2023-02-27T13:37:03;3.53;;;2.30;;
14276;SDS011;7222;57.346;12.150;2023-02-27T13:39:39;2.07;;;1.70;;
14276;SDS011;7222;57.346;12.150;2023-02-27T13:51:38;2.57;;;2.33;;
14276;SDS011;7222;57.346;12.150;2023-02-27T13:54:19;1.87;;;1.40;;
14276;SDS011;7222;57.346;12.150;2023-02-27T13:56:49;1.83;;;1.63;;
14276;SDS011;7222;57.346;12.150;2023-02-27T13:59:31;4.67;;;1.90;;
14276;SDS011;7222;57.346;12.150;2023-02-27T14:02:02;4.53;;;2.30;;
14276;SDS011;7222;57.346;12.150;2023-02-27T14:04:31;2.47;;;2.00;;
14276;SDS011;7222;57.346;12.150;2023-02-27T14:07:03;2.87;;;2.30;;
14276;SDS011;7222;57.346;12.150;2023-02-27T14:09:32;2.90;;;2.30;;
14276;SDS011;7222;57.346;12.150;2023-02-27T14:12:03;4.10;;;2.07;;
14276;SDS011;7222;57.346;12.150;2023-02-27T14:14:40;1.97;;;1.87;;
14276;SDS011;7222;57.346;12.150;2023-02-27T14:17:09;3.73;;;2.00;;
14276;SDS011;7222;57.346;12.150;2023-02-27T14:19:48;3.63;;;2.23;;
14276;SDS011;7222;57.346;12.150;2023-02-27T14:25:30;4.07;;;2.20;;
14276;SDS011;7222;57.346;12.150;2023-02-27T14:28:00;3.37;;;2.13;;
14276;SDS011;7222;57.346;12.150;2023-02-27T14:30:34;2.57;;;2.13;;
14276;SDS011;7222;57.346;12.150;2023-02-27T14:33:06;2.00;;;1.70;;
14276;SDS011;7222;57.346;12.150;2023-02-27T14:35:44;4.37;;;1.70;;
14276;SDS011;7222;57.346;12.150;2023-02-27T14:38:14;3.10;;;1.83;;
14276;SDS011;7222;57.346;12.150;2023-02-27T14:40:49;4.00;;;1.80;;
14276;SDS011;7222;57.346;12.150;2023-02-27T14:43:27;3.67;;;2.23;;
14276;SDS011;7222;57.346;12.150;2023-02-27T14:46:04;2.53;;;1.60;;
14276;SDS011;7222;57.346;12.150;2023-02-27T14:48:36;4.50;;;2.10;;
14276;SDS011;7222;57.346;12.150;2023-02-27T14:51:04;2.63;;;1.90;;
14276;SDS011;7222;57.346;12.150;2023-02-27T14:53:31;2.40;;;2.10;;
14276;SDS011;7222;57.346;12.150;2023-02-27T14:56:00;2.07;;;1.87;;
14276;SDS011;7222;57.346;12.150;2023-02-27T14:58:27;2.40;;;1.70;;
14276;SDS011;7222;57.346;12.150;2023-02-27T15:00:58;2.70;;;1.80;;
14276;SDS011;7222;57.346;12.150;2023-02-27T15:03:33;1.70;;;1.50;;
14276;SDS011;7222;57.346;12.150;2023-02-27T15:06:11;3.13;;;1.77;;
14276;SDS011;7222;57.346;12.150;2023-02-27T15:08:41;2.17;;;1.80;;
14276;SDS011;7222;57.346;12.150;2023-02-27T15:11:15;2.43;;;1.80;;
14276;SDS011;7222;57.346;12.150;2023-02-27T15:13:45;2.53;;;1.80;;
14276;SDS011;7222;57.346;12.150;2023-02-27T15:16:17;1.43;;;1.33;;
14276;SDS011;7222;57.346;12.150;2023-02-27T15:18:46;1.80;;;1.70;;
14276;SDS011;7222;57.346;12.150;2023-02-27T15:21:15;2.10;;;1.50;;
14276;SDS011;7222;57.346;12.150;2023-02-27T15:23:43;2.27;;;1.50;;
14276;SDS011;7222;57.346;12.150;2023-02-27T15:26:22;2.23;;;1.50;;
14276;SDS011;7222;57.346;12.150;2023-02-27T15:28:50;3.93;;;1.60;;
14276;SDS011;7222;57.346;12.150;2023-02-27T15:31:18;2.03;;;1.83;;
14276;SDS011;7222;57.346;12.150;2023-02-27T15:33:47;3.37;;;1.50;;
14276;SDS011;7222;57.346;12.150;2023-02-27T15:36:17;2.50;;;1.50;;
14276;SDS011;7222;57.346;12.150;2023-02-27T15:38:46;2.13;;;1.30;;
14276;SDS011;7222;57.346;12.150;2023-02-27T15:41:34;1.67;;;1.50;;
14276;SDS011;7222;57.346;12.150;2023-02-27T15:44:02;1.97;;;1.40;;
14276;SDS011;7222;57.346;12.150;2023-02-27T15:46:29;1.97;;;1.60;;